Licenciado y General Ignacio Lopez Rayon Airport
MMPN : rendu visible

Aérodrome :











RETROUVEZ-NOUS SUR...

 
LOGIN :

S'inscrire | Disclaimer

   EN    FR    IT 

 









Légende :    VFR   VFR Marginal   IFR   IFR Intensif   IFR Très Intensif
Visi : 
Plafond : 
>= 8 km
>= 3000ft
5 à 8 km
1000 à 3000 ft
1500m à 5 km
500 à 1000 ft
800 à 1500m
200 à 500 ft
< 800m
< 200 ft
Symboles :   Orages  Brouillard  Fortes neiges  Fortes précipitations  Vent > 20 kt






- Altitude de l'aérodrome : 5258 ft
- Code IATA : UPN


MMPN - Licenciado y General Ignacio Lopez Rayon

DERNIER METAR :
  • 200246Z 00000KT 10SM SKC 20/11 A3018 RMK HZY

METARs EXPIRÉS :
  • 200143Z 00000KT 10SM SKC 22/11 A3014 RMK HZY

TAF TAF MMPN
Valide du 19 à 18h jusqu'au 20 à 18h UTC


191554Z 1918/2018 18010KT P6SM SKC
FM200300 00000KT P6SM SCT250
FM201600 14006KT P6SM SKC



MET'MAP, la Météo Aéronautique d'un coup d'oeil ! - Copyright ORBIFLY Décembre 2007 - Disclaimer

ORBIFLY MET'MAP TEAM :

Programmation & Développement : Alexandra Zaïnal
Sur une idée originale de : Baudouin d'Aumeries
Assistance à la programmation : Marc-Olivier Méhu
Soutien technique & logistique : Manuel Goepfert

Contact : metmap@orbifly.com




SOURCES & CREDITS :

   NOAA       Earth
Advisory